Time;durP1;ratioP1;P1;durP2;ratioP2;P2;SDS_P1;SDS_P2;PMS_P1;PMS_P2;Temp;Humidity;BMP_temperature;BMP_pressure;BME280_temperature;BME280_humidity;BME280_pressure;Samples;Min_cycle;Max_cycle;Signal;HPM_P1;HPM_P2
2021/09/20 00:00:39;;;;;;;8.10;6.80;;;13.20;99.90;;;;;;5033261;28;20201;-69
2021/09/20 00:03:04;;;;;;;6.40;5.60;;;13.20;99.90;;;;;;5033225;28;20164;-69
2021/09/20 00:05:30;;;;;;;7.27;6.00;;;13.20;99.90;;;;;;5033746;28;20248;-69
2021/09/20 00:07:56;;;;;;;5.93;5.37;;;13.20;99.90;;;;;;5033480;28;20520;-69
2021/09/20 00:10:21;;;;;;;8.10;6.57;;;13.10;99.90;;;;;;5047757;28;20199;-69
2021/09/20 00:12:47;;;;;;;7.50;6.10;;;13.10;99.90;;;;;;5032997;28;20177;-69
2021/09/20 00:15:13;;;;;;;7.33;6.50;;;13.10;99.90;;;;;;5032904;28;20392;-69
2021/09/20 00:17:40;;;;;;;7.70;6.67;;;13.10;99.90;;;;;;5042979;28;20529;-69
2021/09/20 00:20:08;;;;;;;6.80;6.13;;;13.10;99.90;;;;;;5032954;28;20388;-69
2021/09/20 00:22:34;;;;;;;8.07;6.63;;;13.10;99.90;;;;;;5032747;28;20419;-69
2021/09/20 00:25:00;;;;;;;7.53;6.47;;;13.10;99.90;;;;;;5032802;28;20395;-69
2021/09/20 00:27:25;;;;;;;7.60;5.90;;;13.00;99.90;;;;;;5032691;28;20450;-69
2021/09/20 00:29:52;;;;;;;7.30;6.23;;;13.00;99.90;;;;;;5032749;28;20529;-69
2021/09/20 00:32:18;;;;;;;6.73;6.00;;;12.90;99.90;;;;;;5032584;28;20204;-69
2021/09/20 00:34:44;;;;;;;9.17;6.60;;;12.90;99.90;;;;;;5050233;28;20421;-69
2021/09/20 00:37:10;;;;;;;10.00;5.90;;;12.90;99.90;;;;;;5052625;28;20439;-69
2021/09/20 00:39:36;;;;;;;7.50;5.93;;;12.90;99.90;;;;;;5052640;28;20149;-69
2021/09/20 00:42:02;;;;;;;7.67;6.87;;;12.90;99.90;;;;;;5051045;28;20387;-69
2021/09/20 00:44:27;;;;;;;7.90;7.07;;;12.90;99.90;;;;;;5032462;28;20169;-69
2021/09/20 00:46:53;;;;;;;7.60;6.80;;;12.90;99.90;;;;;;5032752;28;20388;-69
2021/09/20 00:49:18;;;;;;;9.30;7.07;;;12.90;99.90;;;;;;5032667;28;20515;-69
2021/09/20 00:51:44;;;;;;;9.20;6.17;;;12.80;99.90;;;;;;5033374;28;20292;-69
2021/09/20 00:54:10;;;;;;;7.00;5.87;;;12.80;99.90;;;;;;5032201;28;20176;-69
2021/09/20 00:56:36;;;;;;;8.60;7.70;;;12.70;99.90;;;;;;5032649;28;20487;-69
2021/09/20 00:59:01;;;;;;;6.03;5.43;;;12.70;99.90;;;;;;5032217;28;20205;-69
2021/09/20 01:01:27;;;;;;;9.03;7.77;;;12.70;99.90;;;;;;5032652;28;20431;-69
2021/09/20 01:03:53;;;;;;;7.53;6.83;;;12.70;99.90;;;;;;5032325;28;20575;-69
2021/09/20 01:06:19;;;;;;;8.17;6.80;;;12.70;99.90;;;;;;5032575;28;20404;-69
2021/09/20 01:08:44;;;;;;;8.53;6.50;;;12.70;99.90;;;;;;5033075;28;20657;-69
2021/09/20 01:11:11;;;;;;;8.57;7.03;;;12.70;99.90;;;;;;5032290;28;20157;-69
2021/09/20 01:13:36;;;;;;;7.77;6.97;;;12.70;99.90;;;;;;5045356;28;20649;-69
2021/09/20 01:16:02;;;;;;;7.53;6.60;;;12.60;99.90;;;;;;5052309;28;20449;-69
2021/09/20 01:18:27;;;;;;;8.00;7.20;;;12.60;99.90;;;;;;5038931;28;20674;-69
2021/09/20 01:20:53;;;;;;;10.40;7.90;;;12.60;99.90;;;;;;5032649;28;20176;-69
2021/09/20 01:23:19;;;;;;;12.80;7.40;;;12.60;99.90;;;;;;5032167;28;20193;-69
2021/09/20 01:25:45;;;;;;;6.60;5.90;;;12.60;99.90;;;;;;5035196;28;20177;-69
2021/09/20 01:28:11;;;;;;;8.70;7.73;;;12.50;99.90;;;;;;5035750;28;20465;-69
2021/09/20 01:30:36;;;;;;;8.73;7.20;;;12.50;99.90;;;;;;5035762;28;20907;-69
2021/09/20 01:33:02;;;;;;;7.67;6.43;;;12.50;99.90;;;;;;5046249;28;20202;-69
2021/09/20 01:35:28;;;;;;;8.37;7.37;;;12.50;99.90;;;;;;5055777;28;20206;-69
2021/09/20 01:37:54;;;;;;;8.47;7.20;;;12.40;99.90;;;;;;5055400;28;20226;-69
2021/09/20 01:40:20;;;;;;;8.20;6.77;;;12.40;99.90;;;;;;5055602;28;20395;-69
2021/09/20 01:42:46;;;;;;;9.57;7.00;;;12.40;99.90;;;;;;5036713;28;20208;-69
2021/09/20 01:45:13;;;;;;;8.90;6.83;;;12.40;99.90;;;;;;5035434;28;20517;-69
2021/09/20 01:47:39;;;;;;;8.00;7.07;;;12.40;99.90;;;;;;5035511;28;20161;-69
2021/09/20 01:50:08;;;;;;;8.60;7.23;;;12.50;99.90;;;;;;5035613;28;20756;-69
2021/09/20 01:52:34;;;;;;;8.30;7.13;;;12.50;99.90;;;;;;5035247;28;20505;-69
2021/09/20 01:55:00;;;;;;;8.57;6.93;;;12.50;99.90;;;;;;5035400;28;20403;-69
2021/09/20 01:57:26;;;;;;;7.97;6.80;;;12.50;99.90;;;;;;5035291;28;20940;-69
2021/09/20 01:59:52;;;;;;;8.23;7.00;;;12.60;99.90;;;;;;5035705;28;20193;-69
2021/09/20 02:02:18;;;;;;;8.00;7.20;;;12.60;99.90;;;;;;5049796;28;20168;-69
2021/09/20 02:04:44;;;;;;;8.87;7.37;;;12.60;99.90;;;;;;5035430;28;20445;-69
2021/09/20 02:07:10;;;;;;;8.70;7.30;;;12.60;99.90;;;;;;5040198;28;20799;-69
2021/09/20 02:09:36;;;;;;;9.30;7.30;;;12.70;99.90;;;;;;5054967;28;20715;-69
2021/09/20 02:12:01;;;;;;;7.20;6.50;;;12.70;99.90;;;;;;5054600;28;20164;-69
2021/09/20 02:14:27;;;;;;;8.80;7.67;;;12.70;99.90;;;;;;5034989;28;20200;-69
2021/09/20 02:16:53;;;;;;;8.10;7.03;;;12.70;99.90;;;;;;5053715;28;20488;-69
2021/09/20 02:19:19;;;;;;;8.90;6.60;;;12.70;99.90;;;;;;5054916;28;20164;-69
2021/09/20 02:21:44;;;;;;;8.33;6.13;;;12.70;99.90;;;;;;5054690;28;20156;-69
2021/09/20 02:24:10;;;;;;;7.90;6.43;;;12.70;99.90;;;;;;5036893;28;20208;-69
2021/09/20 02:26:36;;;;;;;9.03;7.53;;;12.70;99.90;;;;;;5035090;28;20678;-69
2021/09/20 02:29:02;;;;;;;7.17;5.87;;;12.70;99.90;;;;;;5035111;28;20188;-69
2021/09/20 02:31:28;;;;;;;9.17;7.60;;;12.70;99.90;;;;;;5035056;28;20719;-69
2021/09/20 02:33:53;;;;;;;8.27;6.33;;;12.70;99.90;;;;;;5053026;28;20431;-69
2021/09/20 02:36:19;;;;;;;10.57;7.73;;;12.70;99.90;;;;;;5054560;28;20498;-69
2021/09/20 02:38:45;;;;;;;8.47;7.50;;;12.70;99.90;;;;;;5054700;28;20192;-69
2021/09/20 02:41:10;;;;;;;8.83;6.90;;;12.70;99.90;;;;;;5054682;28;20406;-69
2021/09/20 02:43:36;;;;;;;9.57;8.33;;;12.70;99.90;;;;;;5040307;28;20261;-69
2021/09/20 02:46:03;;;;;;;8.90;7.40;;;12.70;99.90;;;;;;5034213;28;20177;-69
2021/09/20 02:48:28;;;;;;;10.17;8.53;;;12.70;99.90;;;;;;5034418;28;20396;-69
2021/09/20 02:50:54;;;;;;;9.00;7.50;;;12.70;99.90;;;;;;5034893;28;20420;-69
2021/09/20 02:53:19;;;;;;;8.27;7.00;;;12.70;99.90;;;;;;5034357;28;20168;-69
2021/09/20 02:55:45;;;;;;;9.27;7.37;;;12.70;99.90;;;;;;5034739;28;20161;-72
2021/09/20 02:58:10;;;;;;;10.30;7.27;;;12.70;99.90;;;;;;5033942;28;20642;-72
2021/09/20 03:00:36;;;;;;;8.63;7.33;;;12.70;99.90;;;;;;5039618;28;20199;-72
2021/09/20 03:03:02;;;;;;;8.83;7.93;;;12.70;99.90;;;;;;5045315;28;20189;-72
2021/09/20 03:05:28;;;;;;;7.73;6.87;;;12.70;99.90;;;;;;5034151;28;20985;-72
2021/09/20 03:07:53;;;;;;;8.23;7.07;;;12.70;99.90;;;;;;5052887;28;20602;-72
2021/09/20 03:10:19;;;;;;;8.10;7.23;;;12.70;99.90;;;;;;5053876;28;20160;-72
2021/09/20 03:12:46;;;;;;;10.17;6.90;;;12.70;99.90;;;;;;5047433;28;20176;-72
2021/09/20 03:15:11;;;;;;;9.00;7.80;;;12.70;99.90;;;;;;5034107;28;20416;-72
2021/09/20 03:17:37;;;;;;;9.00;7.03;;;12.70;99.90;;;;;;5033382;28;20964;-72
2021/09/20 03:20:04;;;;;;;10.33;8.60;;;12.70;99.90;;;;;;5034179;28;20172;-72
2021/09/20 03:22:29;;;;;;;8.97;7.60;;;12.60;99.90;;;;;;5036745;28;20176;-72
2021/09/20 03:24:55;;;;;;;7.80;6.80;;;12.60;99.90;;;;;;5034114;28;20426;-72
2021/09/20 03:27:21;;;;;;;9.27;7.30;;;12.60;99.90;;;;;;5033500;28;20176;-72
2021/09/20 03:29:46;;;;;;;8.93;7.80;;;12.60;99.90;;;;;;5033962;28;20579;-72
2021/09/20 03:32:12;;;;;;;8.33;7.43;;;12.60;99.90;;;;;;5050289;28;20614;-72
2021/09/20 03:34:38;;;;;;;9.00;7.20;;;12.60;99.90;;;;;;5033768;28;20283;-72
2021/09/20 03:37:03;;;;;;;10.53;7.93;;;12.60;99.90;;;;;;5037937;28;20176;-72
2021/09/20 03:39:29;;;;;;;9.40;7.20;;;12.60;99.90;;;;;;5053537;28;20230;-72
2021/09/20 03:41:55;;;;;;;10.13;7.30;;;12.60;99.90;;;;;;5052142;28;20527;-72
2021/09/20 03:44:20;;;;;;;10.10;7.70;;;12.60;99.90;;;;;;5033571;28;20164;-72
2021/09/20 03:46:46;;;;;;;8.50;7.20;;;12.60;99.90;;;;;;5033491;28;20169;-72
2021/09/20 03:49:12;;;;;;;8.63;7.60;;;12.50;99.90;;;;;;5032994;28;20590;-72
2021/09/20 03:51:38;;;;;;;13.00;7.97;;;12.50;99.90;;;;;;5033142;28;20191;-72
2021/09/20 03:54:04;;;;;;;9.50;8.50;;;12.50;99.90;;;;;;5033015;28;20496;-72
2021/09/20 03:56:30;;;;;;;13.20;8.10;;;12.40;99.90;;;;;;5033182;28;20192;-72
2021/09/20 03:58:55;;;;;;;10.10;8.83;;;12.40;99.90;;;;;;5033416;28;20463;-72
2021/09/20 04:01:21;;;;;;;9.57;8.60;;;12.40;99.90;;;;;;5033266;28;20172;-72
2021/09/20 04:03:47;;;;;;;9.70;7.33;;;12.40;99.90;;;;;;5033286;28;20175;-72
2021/09/20 04:06:12;;;;;;;8.60;7.20;;;12.40;99.90;;;;;;5033255;28;20530;-72
2021/09/20 04:08:38;;;;;;;9.43;7.30;;;12.40;99.90;;;;;;5032905;28;20176;-72
2021/09/20 04:11:03;;;;;;;9.10;7.87;;;12.50;99.90;;;;;;5032985;28;20193;-72
2021/09/20 04:13:29;;;;;;;7.93;7.13;;;12.50;99.90;;;;;;5032228;28;20255;-72
2021/09/20 04:15:55;;;;;;;12.40;7.57;;;12.50;99.90;;;;;;5039871;28;20184;-72
2021/09/20 04:18:24;;;;;;;8.43;7.53;;;12.50;99.90;;;;;;5043285;28;20218;-72
2021/09/20 04:20:51;;;;;;;11.33;8.40;;;12.50;99.90;;;;;;5038514;28;20192;-72
2021/09/20 04:23:19;;;;;;;10.57;7.67;;;12.50;99.90;;;;;;5032935;28;20420;-72
2021/09/20 04:25:45;;;;;;;10.63;9.20;;;12.50;99.90;;;;;;5032802;28;20749;-72
2021/09/20 04:28:11;;;;;;;9.00;7.77;;;12.50;99.90;;;;;;5032600;28;20400;-72
2021/09/20 04:30:36;;;;;;;10.87;7.40;;;12.60;99.90;;;;;;5033216;28;20789;-72
2021/09/20 04:33:03;;;;;;;11.10;7.00;;;12.60;99.90;;;;;;5033198;28;20176;-72
2021/09/20 04:35:29;;;;;;;14.13;8.30;;;12.60;99.90;;;;;;5034807;28;20184;-72
2021/09/20 04:37:54;;;;;;;8.60;7.47;;;12.60;99.90;;;;;;5044527;28;20816;-72
2021/09/20 04:40:20;;;;;;;10.10;7.80;;;12.60;99.90;;;;;;5032441;28;20259;-72
2021/09/20 04:42:45;;;;;;;8.87;7.73;;;12.60;99.90;;;;;;5032439;28;20172;-72
2021/09/20 04:45:11;;;;;;;11.30;8.00;;;12.60;99.90;;;;;;5032328;28;20177;-72
2021/09/20 04:47:37;;;;;;;8.23;7.43;;;12.60;99.90;;;;;;5041005;28;20195;-72
2021/09/20 04:50:04;;;;;;;10.37;7.83;;;12.60;99.90;;;;;;5052541;28;20478;-72
2021/09/20 04:52:30;;;;;;;8.60;7.70;;;12.60;99.90;;;;;;5042524;28;20429;-72
2021/09/20 04:54:55;;;;;;;9.10;7.00;;;12.60;99.90;;;;;;5052479;28;20387;-72
2021/09/20 04:57:21;;;;;;;10.30;8.13;;;12.60;99.90;;;;;;5044663;28;20463;-72
2021/09/20 04:59:47;;;;;;;10.57;7.90;;;12.60;99.90;;;;;;5041856;28;20680;-72
2021/09/20 05:02:12;;;;;;;8.67;7.77;;;12.70;99.90;;;;;;5045757;28;20477;-72
2021/09/20 05:04:38;;;;;;;9.33;7.70;;;12.70;99.90;;;;;;5036998;28;20306;-72
2021/09/20 05:07:03;;;;;;;9.90;7.13;;;12.70;99.90;;;;;;5056336;28;20198;-72
2021/09/20 05:09:29;;;;;;;8.90;7.07;;;12.70;99.90;;;;;;5056471;28;20169;-72
2021/09/20 05:11:55;;;;;;;11.20;8.47;;;12.70;99.90;;;;;;5056436;28;20547;-72
2021/09/20 05:14:20;;;;;;;11.80;7.83;;;12.70;99.90;;;;;;5035939;28;20434;-72
2021/09/20 05:16:46;;;;;;;8.43;7.00;;;12.70;99.90;;;;;;5045199;28;20274;-72
2021/09/20 05:19:11;;;;;;;9.60;7.03;;;12.70;99.90;;;;;;5038741;28;20200;-73
2021/09/20 05:21:38;;;;;;;8.07;7.27;;;12.70;99.90;;;;;;5037789;28;20236;-72
2021/09/20 05:24:04;;;;;;;8.20;7.30;;;12.70;99.90;;;;;;5041599;28;20171;-72
2021/09/20 05:26:29;;;;;;;14.60;8.20;;;12.70;99.90;;;;;;5037400;28;20510;-72
2021/09/20 05:28:55;;;;;;;8.70;6.90;;;12.70;99.90;;;;;;5039575;28;20526;-72
2021/09/20 05:31:20;;;;;;;9.60;7.50;;;12.70;99.90;;;;;;5044000;28;20246;-72
2021/09/20 05:33:46;;;;;;;9.50;7.80;;;12.70;99.90;;;;;;5042451;28;20176;-72
2021/09/20 05:36:11;;;;;;;10.70;8.23;;;12.80;99.90;;;;;;5048788;28;20275;-72
2021/09/20 05:38:37;;;;;;;8.27;7.40;;;12.80;99.90;;;;;;5049819;28;20238;-72
2021/09/20 05:41:03;;;;;;;10.40;7.67;;;12.80;99.90;;;;;;5037346;28;20171;-72
2021/09/20 05:43:28;;;;;;;11.30;8.53;;;12.90;99.90;;;;;;5044002;28;20264;-72
2021/09/20 05:45:54;;;;;;;8.93;7.33;;;12.80;99.90;;;;;;5038808;28;20510;-72
2021/09/20 05:48:20;;;;;;;10.70;8.40;;;12.90;99.90;;;;;;5044286;28;20548;-72
2021/09/20 05:50:46;;;;;;;9.67;7.30;;;12.90;99.90;;;;;;5041386;28;20184;-72
2021/09/20 05:53:14;;;;;;;10.97;8.10;;;12.90;99.90;;;;;;5041385;28;20245;-72
2021/09/20 05:55:39;;;;;;;8.83;7.13;;;12.90;99.90;;;;;;5045710;28;20462;-72
2021/09/20 05:58:06;;;;;;;13.83;9.30;;;13.00;99.90;;;;;;5035468;28;20491;-72
2021/09/20 06:00:32;;;;;;;10.80;7.50;;;13.00;99.90;;;;;;5044544;28;20200;-72
2021/09/20 06:02:57;;;;;;;9.13;7.33;;;12.90;99.90;;;;;;5033958;28;20795;-72
2021/09/20 06:05:23;;;;;;;8.07;6.50;;;13.00;99.90;;;;;;5033814;28;20446;-72
2021/09/20 06:07:49;;;;;;;9.30;7.50;;;13.00;99.90;;;;;;5034785;28;20271;-72
2021/09/20 06:10:16;;;;;;;11.90;8.70;;;13.00;99.90;;;;;;5035647;28;20192;-72
2021/09/20 06:12:42;;;;;;;10.10;7.20;;;13.00;99.90;;;;;;5038082;28;20185;-72
2021/09/20 06:15:10;;;;;;;7.97;7.17;;;13.00;99.90;;;;;;5038717;28;20434;-72
2021/09/20 06:17:36;;;;;;;9.57;6.83;;;13.00;99.90;;;;;;5035998;28;20817;-72
2021/09/20 06:20:04;;;;;;;11.07;7.77;;;13.00;99.90;;;;;;5035674;28;20525;-72
2021/09/20 06:22:29;;;;;;;8.40;6.90;;;13.10;99.90;;;;;;5042901;28;20438;-72
2021/09/20 06:24:57;;;;;;;8.50;7.60;;;13.10;99.90;;;;;;5039962;28;20449;-72
2021/09/20 06:27:22;;;;;;;11.73;7.67;;;13.10;99.90;;;;;;5040543;28;20267;-72
2021/09/20 06:29:48;;;;;;;9.73;7.30;;;13.20;99.90;;;;;;5039376;28;20521;-72
2021/09/20 06:32:13;;;;;;;10.83;7.97;;;13.20;99.90;;;;;;5040957;28;20180;-76
2021/09/20 06:34:39;;;;;;;9.17;7.50;;;13.20;99.90;;;;;;5042808;28;20272;-73
2021/09/20 06:37:05;;;;;;;8.83;7.37;;;13.30;99.90;;;;;;5040918;28;20200;-73
2021/09/20 06:39:31;;;;;;;11.67;7.03;;;13.30;99.90;;;;;;5040738;28;20190;-72
2021/09/20 06:41:56;;;;;;;8.63;7.73;;;13.30;99.90;;;;;;5042036;28;20181;-71
2021/09/20 06:44:22;;;;;;;10.00;8.13;;;13.40;99.90;;;;;;5035948;28;20200;-71
2021/09/20 06:46:47;;;;;;;8.40;7.40;;;13.40;99.90;;;;;;5039264;28;20181;-71
2021/09/20 06:49:15;;;;;;;7.57;6.63;;;13.40;99.90;;;;;;5039904;28;20191;-71
2021/09/20 06:51:41;;;;;;;9.77;7.03;;;13.40;99.90;;;;;;5039118;28;20177;-71
2021/09/20 06:54:06;;;;;;;9.50;7.40;;;13.50;99.90;;;;;;5039214;28;20504;-71
2021/09/20 06:56:32;;;;;;;7.47;6.57;;;13.50;99.90;;;;;;5044372;28;20432;-71
2021/09/20 06:58:58;;;;;;;8.13;7.03;;;13.50;99.90;;;;;;5034308;28;20281;-71
2021/09/20 07:01:23;;;;;;;9.00;6.60;;;13.50;99.90;;;;;;5032626;28;20955;-71
2021/09/20 07:03:49;;;;;;;9.17;6.27;;;13.60;99.90;;;;;;5040980;28;20242;-72
2021/09/20 07:06:14;;;;;;;7.97;7.13;;;13.60;99.90;;;;;;5037656;28;20172;-72
2021/09/20 07:08:40;;;;;;;8.90;6.80;;;13.70;99.90;;;;;;5039535;28;20176;-71
2021/09/20 07:11:06;;;;;;;7.43;6.47;;;13.70;99.90;;;;;;5042093;28;20590;-72
2021/09/20 07:13:31;;;;;;;8.47;6.57;;;13.70;99.90;;;;;;5037614;28;20262;-72
2021/09/20 07:15:57;;;;;;;7.10;6.27;;;13.80;99.90;;;;;;5038274;28;20528;-71
2021/09/20 07:18:23;;;;;;;9.10;7.10;;;13.80;99.90;;;;;;5037716;28;20233;-72
2021/09/20 07:20:49;;;;;;;10.63;6.50;;;13.80;99.90;;;;;;5038466;28;20253;-71
2021/09/20 07:23:15;;;;;;;6.83;6.10;;;13.80;99.90;;;;;;5040873;28;20185;-71
2021/09/20 07:25:40;;;;;;;9.43;7.83;;;13.90;99.90;;;;;;5043738;28;20476;-71
2021/09/20 07:28:06;;;;;;;6.67;6.00;;;13.90;99.90;;;;;;5037570;28;20181;-71
2021/09/20 07:30:32;;;;;;;8.47;6.63;;;13.90;99.90;;;;;;5039553;28;20247;-72
2021/09/20 07:32:58;;;;;;;9.70;6.17;;;14.00;99.90;;;;;;5040308;28;20646;-72
2021/09/20 07:35:25;;;;;;;7.10;6.40;;;14.00;99.90;;;;;;5036217;28;20448;-71
2021/09/20 07:37:54;;;;;;;9.60;6.23;;;14.00;99.90;;;;;;5034760;28;20314;-71
2021/09/20 07:40:22;;;;;;;8.83;5.60;;;14.00;99.90;;;;;;5033242;28;20424;-71
2021/09/20 07:42:49;;;;;;;8.50;6.43;;;14.10;99.90;;;;;;5033348;28;20424;-71
2021/09/20 07:45:15;;;;;;;10.50;6.50;;;14.10;99.90;;;;;;5036880;28;20441;-71
2021/09/20 07:47:41;;;;;;;6.80;6.10;;;14.10;99.90;;;;;;5031442;28;20443;-72
2021/09/20 07:50:08;;;;;;;8.93;6.17;;;14.10;99.90;;;;;;5033547;28;20193;-72
2021/09/20 07:52:33;;;;;;;6.20;5.40;;;14.20;99.90;;;;;;5036730;28;20215;-72
2021/09/20 07:54:59;;;;;;;7.10;5.90;;;14.10;99.90;;;;;;5033277;28;20465;-72
2021/09/20 07:57:25;;;;;;;5.97;5.00;;;14.20;99.90;;;;;;5048276;28;20202;-71
2021/09/20 07:59:51;;;;;;;6.47;5.67;;;14.20;99.90;;;;;;5042679;28;20680;-71
2021/09/20 08:02:17;;;;;;;7.07;5.43;;;14.30;99.90;;;;;;5042103;28;20434;-71
2021/09/20 08:04:42;;;;;;;6.87;5.60;;;14.30;99.90;;;;;;5046480;28;20520;-71
2021/09/20 08:07:08;;;;;;;6.67;5.97;;;14.30;99.90;;;;;;5031584;28;20184;-71
2021/09/20 08:09:34;;;;;;;7.30;5.37;;;14.40;99.90;;;;;;5032732;28;20308;-71
2021/09/20 08:11:59;;;;;;;6.43;5.43;;;14.30;99.90;;;;;;5034481;28;20194;-71
2021/09/20 08:14:25;;;;;;;6.30;5.70;;;14.40;99.90;;;;;;5044804;28;20177;-71
2021/09/20 08:16:50;;;;;;;6.87;5.63;;;14.30;99.90;;;;;;5038309;28;20639;-71
2021/09/20 08:19:16;;;;;;;7.03;6.20;;;14.40;99.90;;;;;;5043167;28;20208;-71
2021/09/20 08:21:42;;;;;;;7.53;5.27;;;14.50;99.90;;;;;;5044872;28;20594;-71
2021/09/20 08:24:07;;;;;;;6.03;5.13;;;14.60;99.90;;;;;;5041468;28;20201;-72
2021/09/20 08:26:33;;;;;;;5.90;5.30;;;14.70;99.90;;;;;;5038334;28;20189;-71
2021/09/20 08:28:58;;;;;;;6.80;5.83;;;14.80;99.90;;;;;;5037860;28;20187;-71
2021/09/20 08:31:24;;;;;;;10.90;5.97;;;14.80;99.90;;;;;;5038733;28;20232;-71
2021/09/20 08:33:50;;;;;;;6.07;5.17;;;14.90;99.90;;;;;;5047191;28;20218;-71
2021/09/20 08:36:16;;;;;;;5.60;5.00;;;14.90;99.90;;;;;;5044290;28;20669;-71
2021/09/20 08:38:42;;;;;;;7.60;5.13;;;15.00;99.90;;;;;;5047063;28;20202;-72
2021/09/20 08:41:08;;;;;;;7.40;5.57;;;15.00;99.90;;;;;;5043732;28;20433;-72
2021/09/20 08:43:33;;;;;;;6.47;5.87;;;15.10;99.90;;;;;;5044910;28;20182;-71
2021/09/20 08:46:02;;;;;;;6.47;5.87;;;15.20;99.90;;;;;;5039970;28;20661;-71
2021/09/20 08:48:35;;;;;;;7.07;5.00;;;15.20;99.90;;;;;;5041390;28;20198;-72
2021/09/20 08:51:00;;;;;;;7.57;4.60;;;15.30;99.90;;;;;;5034192;28;20445;-72
2021/09/20 08:53:26;;;;;;;5.60;5.00;;;15.30;99.90;;;;;;5046279;28;20903;-72
2021/09/20 08:55:51;;;;;;;6.17;5.57;;;15.40;99.90;;;;;;5037330;28;20183;-72
2021/09/20 08:58:17;;;;;;;5.73;5.20;;;15.50;99.90;;;;;;5042825;28;20672;-71
2021/09/20 09:00:43;;;;;;;6.70;5.70;;;15.50;99.90;;;;;;5039990;28;20250;-71
2021/09/20 09:03:08;;;;;;;5.90;5.23;;;15.60;99.90;;;;;;5042339;28;20181;-72
2021/09/20 09:05:34;;;;;;;6.10;5.50;;;15.60;99.90;;;;;;5038241;28;20204;-72
2021/09/20 09:08:04;;;;;;;5.70;4.90;;;15.70;99.90;;;;;;5038305;28;20210;-72
2021/09/20 09:10:33;;;;;;;6.60;5.10;;;15.70;99.90;;;;;;5042290;28;20474;-72
2021/09/20 09:13:03;;;;;;;5.60;4.67;;;15.70;99.90;;;;;;5048238;28;20521;-72
2021/09/20 09:15:28;;;;;;;5.20;4.70;;;15.70;99.90;;;;;;5045024;28;20441;-72
2021/09/20 09:17:56;;;;;;;5.60;4.80;;;15.70;99.90;;;;;;5043923;28;20951;-72
2021/09/20 09:20:28;;;;;;;8.50;5.03;;;15.70;99.90;;;;;;5036894;28;20264;-73
2021/09/20 09:22:58;;;;;;;6.40;4.70;;;15.70;99.90;;;;;;5045804;28;20423;-72
2021/09/20 09:30:56;;;;;;;5.20;4.70;;;15.80;99.90;;;;;;5106548;27;20991;-74
2021/09/20 09:36:04;;;;;;;5.53;4.73;;;16.20;99.90;;;;;;5130507;27;20541;-73
2021/09/20 09:38:30;;;;;;;5.17;4.67;;;16.30;99.90;;;;;;5105508;28;20434;-73
2021/09/20 09:40:58;;;;;;;5.70;5.10;;;16.40;99.90;;;;;;5107801;28;20439;-73
2021/09/20 09:46:24;;;;;;;5.40;4.63;;;16.50;99.90;;;;;;5071541;28;20614;-73
2021/09/20 09:48:53;;;;;;;6.00;4.87;;;16.80;99.90;;;;;;5057528;28;20503;-73
2021/09/20 09:51:18;;;;;;;6.63;5.37;;;16.80;99.90;;;;;;5052427;28;20803;-73
2021/09/20 09:53:47;;;;;;;6.53;5.10;;;16.90;99.90;;;;;;5050427;28;20433;-73
2021/09/20 09:56:26;;;;;;;4.90;4.40;;;16.90;99.90;;;;;;5055631;28;20182;-73
2021/09/20 09:59:02;;;;;;;5.30;4.67;;;16.90;99.90;;;;;;5053831;28;21865;-72
2021/09/20 10:01:32;;;;;;;5.03;4.53;;;16.90;99.90;;;;;;5055001;28;20516;-72
2021/09/20 10:09:26;;;;;;;5.60;4.50;;;17.10;99.90;;;;;;5046417;28;20655;-74
2021/09/20 10:11:54;;;;;;;5.00;4.17;;;17.30;99.90;;;;;;5044133;28;20463;-73
2021/09/20 10:14:21;;;;;;;4.73;4.10;;;17.40;99.90;;;;;;5047548;28;20448;-73
2021/09/20 10:16:49;;;;;;;4.73;4.23;;;17.50;99.90;;;;;;5044566;28;20445;-73
2021/09/20 10:19:15;;;;;;;4.40;3.80;;;17.60;99.40;;;;;;5052324;28;20496;-73
2021/09/20 10:21:41;;;;;;;3.97;3.57;;;17.70;98.80;;;;;;5044473;28;20423;-73
2021/09/20 10:24:07;;;;;;;5.20;4.50;;;17.70;98.60;;;;;;5051863;28;20442;-73
2021/09/20 10:26:33;;;;;;;4.30;3.90;;;17.80;98.90;;;;;;5052822;28;20551;-73
2021/09/20 10:29:01;;;;;;;6.40;4.27;;;17.80;98.40;;;;;;5048639;28;20218;-73
2021/09/20 10:31:29;;;;;;;4.70;4.23;;;17.90;98.50;;;;;;5045062;28;20439;-73
2021/09/20 10:39:48;;;;;;;4.80;4.40;;;18.10;97.40;;;;;;5072844;27;20948;-73
2021/09/20 10:48:26;;;;;;;4.60;4.13;;;18.10;97.20;;;;;;5104179;27;20547;-73
2021/09/20 10:50:56;;;;;;;6.17;3.50;;;18.10;97.20;;;;;;5090636;28;20830;-72
2021/09/20 10:56:08;;;;;;;4.87;4.37;;;18.10;96.90;;;;;;5044214;28;20549;-73
2021/09/20 10:58:38;;;;;;;5.33;4.23;;;18.00;97.10;;;;;;5045315;28;20422;-73
2021/09/20 11:06:37;;;;;;;4.90;4.40;;;18.20;95.60;;;;;;5061889;28;20548;-73
2021/09/20 11:12:02;;;;;;;4.60;4.20;;;18.40;95.80;;;;;;5066308;28;20671;-74
2021/09/20 11:14:49;;;;;;;9.10;4.40;;;18.60;95.10;;;;;;5052075;28;20426;-74
2021/09/20 11:17:25;;;;;;;5.10;4.43;;;18.70;95.00;;;;;;5052009;28;20481;-74
2021/09/20 11:19:54;;;;;;;6.10;5.17;;;18.70;94.90;;;;;;5052504;28;20807;-73
2021/09/20 11:22:23;;;;;;;4.47;4.07;;;18.70;94.90;;;;;;5057994;28;20433;-73
2021/09/20 11:24:53;;;;;;;6.57;4.23;;;18.80;94.60;;;;;;5053974;28;20882;-73
2021/09/20 11:27:38;;;;;;;4.37;3.93;;;18.70;94.10;;;;;;5042844;28;20434;-73
2021/09/20 11:30:12;;;;;;;7.93;4.57;;;18.60;93.70;;;;;;5057016;28;20540;-73
2021/09/20 11:32:52;;;;;;;4.70;4.20;;;18.50;93.80;;;;;;5052895;28;20985;-73
2021/09/20 11:35:18;;;;;;;10.00;7.17;;;18.50;93.90;;;;;;5052596;28;20782;-73
2021/09/20 11:37:45;;;;;;;5.60;4.70;;;18.60;94.10;;;;;;5048029;28;20417;-73
2021/09/20 11:40:15;;;;;;;3.93;3.53;;;18.50;93.80;;;;;;5047044;28;20495;-73
2021/09/20 11:42:46;;;;;;;4.23;3.83;;;18.50;93.60;;;;;;5044543;28;20612;-74
2021/09/20 11:47:53;;;;;;;5.13;3.83;;;18.30;93.60;;;;;;5066400;28;20589;-73
2021/09/20 11:50:23;;;;;;;5.20;4.70;;;18.20;93.30;;;;;;5056164;28;20465;-73
2021/09/20 11:52:52;;;;;;;5.07;4.57;;;18.30;93.80;;;;;;5056970;28;20477;-73
2021/09/20 11:55:20;;;;;;;4.40;4.00;;;18.40;93.80;;;;;;5055065;28;20503;-74
2021/09/20 11:57:50;;;;;;;5.03;4.53;;;18.50;93.40;;;;;;5050826;28;20912;-74
2021/09/20 12:00:18;;;;;;;4.63;4.22;;;18.50;93.10;;;;;;5054112;28;20515;-73
2021/09/20 12:02:47;;;;;;;5.90;5.30;;;18.50;93.30;;;;;;5050065;28;20183;-74
2021/09/20 12:05:16;;;;;;;6.60;5.05;;;18.50;93.10;;;;;;5040294;28;20441;-73
2021/09/20 12:07:50;;;;;;;6.10;5.20;;;18.50;93.00;;;;;;5035548;28;20223;-73
2021/09/20 12:10:18;;;;;;;5.23;4.70;;;18.40;92.80;;;;;;5038098;28;20434;-73
2021/09/20 12:12:49;;;;;;;5.30;4.90;;;18.40;92.40;;;;;;5054191;28;20785;-73
2021/09/20 12:15:15;;;;;;;7.23;5.07;;;18.30;91.90;;;;;;5044078;28;20431;-74
2021/09/20 12:20:30;;;;;;;5.03;4.53;;;18.30;91.80;;;;;;5040908;28;20689;-73
2021/09/20 12:22:57;;;;;;;5.90;5.30;;;18.40;92.10;;;;;;5044033;28;20489;-73
2021/09/20 12:36:34;;;;;;;6.30;5.07;;;18.00;93.10;;;;;;5059109;28;20642;-73
2021/09/20 12:44:34;;;;;;;5.60;5.10;;;18.00;93.40;;;;;;5058244;28;20525;-73
2021/09/20 12:50:05;;;;;;;5.60;5.10;;;17.90;93.00;;;;;;5065914;28;20541;-72
2021/09/20 12:52:33;;;;;;;6.50;5.27;;;17.90;93.10;;;;;;5058605;28;20850;-72
2021/09/20 12:54:59;;;;;;;6.47;5.00;;;17.90;93.20;;;;;;5055361;28;20453;-72
2021/09/20 12:57:27;;;;;;;4.90;4.47;;;17.80;93.40;;;;;;5053652;28;20517;-72
2021/09/20 13:03:05;;;;;;;6.23;4.70;;;17.80;93.90;;;;;;5048771;28;20543;-73
2021/09/20 13:05:31;;;;;;;7.70;5.67;;;17.70;93.60;;;;;;5051102;28;21022;-73
2021/09/20 13:08:04;;;;;;;5.10;4.60;;;17.70;93.90;;;;;;5048312;28;20517;-73
2021/09/20 13:10:32;;;;;;;6.00;5.40;;;17.80;93.60;;;;;;5047808;28;20188;-73
2021/09/20 13:12:58;;;;;;;6.50;5.13;;;17.80;93.70;;;;;;5047512;28;20931;-73
2021/09/20 13:15:26;;;;;;;6.10;5.53;;;17.90;94.30;;;;;;5049856;28;20959;-73
2021/09/20 13:17:55;;;;;;;5.60;5.10;;;17.90;93.70;;;;;;5060000;28;20451;-73
2021/09/20 13:20:36;;;;;;;4.33;3.93;;;18.00;93.20;;;;;;5055083;28;20442;-73
2021/09/20 13:28:28;;;;;;;4.80;4.30;;;18.10;92.80;;;;;;5106784;27;20663;-73
2021/09/20 13:30:56;;;;;;;4.97;4.57;;;18.20;93.10;;;;;;5107057;28;20424;-73
2021/09/20 13:33:24;;;;;;;5.60;4.47;;;18.30;93.00;;;;;;5102479;28;20491;-73
2021/09/20 13:36:13;;;;;;;5.07;4.57;;;18.30;93.10;;;;;;5090393;28;20504;-74
2021/09/20 13:38:42;;;;;;;5.23;4.73;;;18.30;93.90;;;;;;5082871;28;20972;-74
2021/09/20 13:41:11;;;;;;;5.03;4.53;;;18.40;94.30;;;;;;5091411;28;20468;-72
2021/09/20 13:43:39;;;;;;;5.50;5.00;;;18.40;94.30;;;;;;5096624;28;20442;-75
2021/09/20 13:46:07;;;;;;;7.20;6.50;;;18.30;94.30;;;;;;5087962;28;20434;-73
2021/09/20 13:48:33;;;;;;;7.40;5.50;;;18.30;94.30;;;;;;5099148;28;20891;-73
2021/09/20 13:50:59;;;;;;;6.50;5.10;;;18.20;93.80;;;;;;5105384;28;20421;-72
2021/09/20 13:53:24;;;;;;;10.30;6.97;;;18.20;94.20;;;;;;5095394;28;20179;-72
2021/09/20 13:55:50;;;;;;;5.70;5.20;;;18.20;93.70;;;;;;5089755;28;20175;-74